Time;durP1;ratioP1;P1;durP2;ratioP2;P2;SDS_P1;SDS_P2;PMS_P1;PMS_P2;Temp;Humidity;BMP_temperature;BMP_pressure;BME280_temperature;BME280_humidity;BME280_pressure;Samples;Min_cycle;Max_cycle;Signal;HPM_P1;HPM_P2
2020/12/12 00:01:36;;;;;;;16.03;13.07;;;9.40;92.00;;;;;;5068712;28;20738;-50
2020/12/12 00:04:03;;;;;;;14.73;13.20;;;9.40;92.10;;;;;;5068693;28;20624;-50
2020/12/12 00:06:30;;;;;;;13.47;11.70;;;9.40;92.20;;;;;;5068663;28;20688;-50
2020/12/12 00:08:56;;;;;;;14.37;12.97;;;9.40;92.20;;;;;;5069230;28;20669;-50
2020/12/12 00:11:24;;;;;;;15.73;12.63;;;9.40;92.30;;;;;;5073186;28;21062;-51
2020/12/12 00:13:51;;;;;;;17.73;14.17;;;9.40;92.40;;;;;;5081729;28;20683;-51
2020/12/12 00:16:18;;;;;;;13.90;12.60;;;9.40;92.40;;;;;;5078781;28;20671;-51
2020/12/12 00:18:45;;;;;;;14.17;12.50;;;9.40;92.50;;;;;;5088029;28;20688;-50
2020/12/12 00:21:12;;;;;;;18.93;11.60;;;9.40;92.40;;;;;;5086758;28;20719;-50
2020/12/12 00:23:38;;;;;;;16.57;13.70;;;9.40;92.40;;;;;;5067976;28;20733;-50
2020/12/12 00:26:05;;;;;;;16.20;12.13;;;9.40;92.50;;;;;;5069410;28;20912;-49
2020/12/12 00:28:34;;;;;;;15.17;13.47;;;9.40;92.60;;;;;;5068406;28;20648;-49
2020/12/12 00:31:00;;;;;;;15.90;13.90;;;9.40;92.60;;;;;;5070692;28;20729;-49
2020/12/12 00:33:27;;;;;;;14.63;13.00;;;9.30;92.80;;;;;;5068806;28;20678;-49
2020/12/12 00:35:54;;;;;;;17.17;15.23;;;9.30;93.00;;;;;;5069101;28;20625;-49
2020/12/12 00:38:21;;;;;;;18.63;14.73;;;9.20;93.20;;;;;;5068977;28;21198;-48
2020/12/12 00:40:56;;;;;;;17.97;14.97;;;9.20;93.30;;;;;;5070133;28;20679;-49
2020/12/12 00:43:23;;;;;;;16.03;13.73;;;9.20;93.50;;;;;;5069203;28;20633;-49
2020/12/12 00:45:51;;;;;;;15.40;13.80;;;9.10;93.60;;;;;;5062194;28;20689;-49
2020/12/12 00:48:17;;;;;;;15.30;13.27;;;9.10;93.70;;;;;;5068992;28;20709;-49
2020/12/12 00:50:45;;;;;;;14.80;13.27;;;9.00;93.70;;;;;;5069948;28;20643;-50
2020/12/12 00:53:12;;;;;;;17.70;13.40;;;9.00;93.90;;;;;;5068991;28;20632;-50
2020/12/12 00:55:38;;;;;;;14.40;12.90;;;9.10;94.00;;;;;;5068288;28;21064;-50
2020/12/12 00:58:05;;;;;;;14.03;11.93;;;9.10;94.00;;;;;;5068382;28;20678;-52
2020/12/12 01:00:33;;;;;;;16.30;13.97;;;9.10;94.00;;;;;;5073042;28;20669;-50
2020/12/12 01:03:01;;;;;;;13.53;12.13;;;9.10;93.90;;;;;;5072477;28;20665;-51
2020/12/12 01:05:29;;;;;;;13.73;12.13;;;9.20;94.00;;;;;;5069657;28;20958;-51
2020/12/12 01:07:55;;;;;;;14.17;12.67;;;9.20;93.90;;;;;;5068471;28;21240;-50
2020/12/12 01:10:22;;;;;;;15.57;12.20;;;9.20;93.80;;;;;;5069239;28;21167;-52
2020/12/12 01:12:50;;;;;;;15.73;12.10;;;9.20;93.80;;;;;;5067987;28;21172;-53
2020/12/12 01:15:17;;;;;;;14.03;12.43;;;9.20;93.70;;;;;;5069930;28;20769;-53
2020/12/12 01:17:44;;;;;;;13.17;11.70;;;9.30;94.10;;;;;;5092559;28;20624;-52
2020/12/12 01:20:12;;;;;;;15.40;11.73;;;9.30;93.70;;;;;;5092074;28;20632;-52
2020/12/12 01:22:39;;;;;;;12.40;11.20;;;9.30;93.60;;;;;;5075977;28;20726;-53
2020/12/12 01:25:05;;;;;;;16.13;14.50;;;9.30;93.70;;;;;;5071584;28;20613;-52
2020/12/12 01:27:32;;;;;;;12.37;10.60;;;9.30;93.60;;;;;;5070844;28;21041;-52
2020/12/12 01:29:59;;;;;;;13.80;12.33;;;9.40;93.70;;;;;;5072302;28;20785;-52
2020/12/12 01:32:26;;;;;;;13.77;11.80;;;9.40;93.60;;;;;;5073073;28;20714;-52
2020/12/12 01:34:53;;;;;;;12.67;11.37;;;9.50;93.30;;;;;;5072475;28;20986;-52
2020/12/12 01:37:20;;;;;;;14.07;12.60;;;9.50;93.10;;;;;;5072647;28;20673;-52
2020/12/12 01:39:47;;;;;;;12.23;11.03;;;9.50;93.10;;;;;;5072730;28;20625;-52
2020/12/12 01:42:14;;;;;;;12.30;10.57;;;9.50;93.10;;;;;;5073209;28;20734;-52
2020/12/12 01:44:40;;;;;;;15.50;12.20;;;9.50;93.00;;;;;;5072446;28;20636;-52
2020/12/12 01:47:07;;;;;;;17.83;13.47;;;9.50;93.00;;;;;;5072563;28;20620;-53
2020/12/12 01:49:34;;;;;;;15.10;12.07;;;9.40;93.00;;;;;;5071578;28;20697;-53
2020/12/12 01:52:01;;;;;;;13.07;10.33;;;9.40;93.00;;;;;;5072141;28;20734;-52
2020/12/12 01:54:28;;;;;;;16.37;14.20;;;9.40;93.10;;;;;;5072133;28;20628;-52
2020/12/12 01:56:55;;;;;;;11.47;10.33;;;9.40;93.20;;;;;;5071936;28;20621;-52
2020/12/12 01:59:22;;;;;;;14.57;12.50;;;9.40;93.20;;;;;;5070468;28;21233;-52
2020/12/12 02:01:49;;;;;;;13.70;12.30;;;9.40;93.20;;;;;;5072173;28;20659;-52
2020/12/12 02:04:18;;;;;;;11.53;10.33;;;9.30;93.20;;;;;;5071372;28;20640;-52
2020/12/12 02:06:45;;;;;;;13.40;12.00;;;9.30;93.20;;;;;;5072133;28;20623;-52
2020/12/12 02:09:14;;;;;;;11.60;10.40;;;9.40;93.20;;;;;;5071974;28;20710;-52
2020/12/12 02:11:42;;;;;;;12.13;10.70;;;9.40;93.10;;;;;;5055291;28;21219;-52
2020/12/12 02:14:10;;;;;;;13.63;11.60;;;9.40;93.10;;;;;;5071831;28;20630;-52
2020/12/12 02:16:51;;;;;;;14.80;12.40;;;9.40;92.90;;;;;;5071743;28;20701;-52
2020/12/12 02:19:18;;;;;;;12.07;10.63;;;9.40;93.10;;;;;;5072026;28;20670;-52
2020/12/12 02:21:52;;;;;;;12.90;11.70;;;9.40;93.00;;;;;;5071824;28;21029;-52
2020/12/12 02:24:19;;;;;;;12.57;11.33;;;9.40;93.00;;;;;;5063958;28;20701;-53
2020/12/12 02:26:46;;;;;;;12.73;11.43;;;9.40;93.00;;;;;;5071407;28;20654;-53
2020/12/12 02:29:12;;;;;;;14.53;13.00;;;9.40;93.00;;;;;;5071258;28;20657;-52
2020/12/12 02:31:39;;;;;;;14.73;12.90;;;9.50;93.10;;;;;;5071330;28;20758;-52
2020/12/12 02:34:06;;;;;;;13.17;11.70;;;9.50;93.00;;;;;;5070371;28;20636;-52
2020/12/12 02:36:39;;;;;;;15.47;12.40;;;9.50;93.00;;;;;;5053482;28;20620;-52
2020/12/12 02:39:08;;;;;;;12.93;11.60;;;9.50;92.90;;;;;;5071504;28;21037;-52
2020/12/12 02:41:35;;;;;;;16.17;11.40;;;9.50;92.80;;;;;;5070776;28;20664;-53
2020/12/12 02:44:02;;;;;;;15.20;11.93;;;9.50;92.70;;;;;;5072737;28;21113;-53
2020/12/12 02:46:28;;;;;;;13.70;11.60;;;9.50;92.90;;;;;;5071063;28;20702;-52
2020/12/12 02:48:55;;;;;;;13.47;11.77;;;9.60;93.00;;;;;;5069839;28;20683;-52
2020/12/12 02:51:22;;;;;;;12.43;10.77;;;9.60;92.80;;;;;;5070979;28;20665;-51
2020/12/12 02:53:49;;;;;;;14.43;10.83;;;9.60;92.70;;;;;;5070413;28;20674;-52
2020/12/12 02:56:17;;;;;;;13.20;11.87;;;9.60;92.70;;;;;;5070893;28;20678;-52
2020/12/12 02:58:43;;;;;;;12.40;11.03;;;9.60;92.60;;;;;;5071290;28;20636;-52
2020/12/12 03:01:11;;;;;;;13.57;11.23;;;9.60;92.60;;;;;;5070812;28;20672;-52
2020/12/12 03:03:38;;;;;;;13.17;11.07;;;9.60;92.70;;;;;;5083178;28;20664;-52
2020/12/12 03:06:05;;;;;;;11.73;9.93;;;9.60;92.80;;;;;;5070947;28;20644;-52
2020/12/12 03:08:31;;;;;;;14.13;12.53;;;9.50;92.70;;;;;;5069587;28;21322;-52
2020/12/12 03:10:58;;;;;;;13.70;11.40;;;9.50;92.80;;;;;;5069836;28;21246;-52
2020/12/12 03:13:26;;;;;;;12.50;10.90;;;9.60;92.90;;;;;;5070502;28;20637;-52
2020/12/12 03:15:52;;;;;;;12.50;11.20;;;9.60;92.90;;;;;;5070740;28;20686;-52
2020/12/12 03:18:19;;;;;;;13.47;11.57;;;9.60;92.80;;;;;;5071520;28;20629;-52
2020/12/12 03:20:46;;;;;;;11.40;10.27;;;9.60;92.90;;;;;;5070247;28;20637;-53
2020/12/12 03:23:13;;;;;;;13.27;11.90;;;9.60;93.00;;;;;;5070677;28;21327;-53
2020/12/12 03:25:40;;;;;;;12.47;11.17;;;9.60;93.10;;;;;;5070195;28;20629;-53
2020/12/12 03:28:06;;;;;;;10.97;9.90;;;9.60;93.10;;;;;;5070586;28;20674;-53
2020/12/12 03:30:34;;;;;;;12.60;11.30;;;9.70;93.00;;;;;;5070817;28;20706;-53
2020/12/12 03:33:01;;;;;;;11.30;10.10;;;9.70;92.90;;;;;;5070334;28;20715;-53
2020/12/12 03:35:28;;;;;;;15.93;11.33;;;9.70;92.70;;;;;;5072951;28;20987;-53
2020/12/12 03:37:55;;;;;;;11.13;10.00;;;9.70;92.60;;;;;;5069531;28;20633;-53
2020/12/12 03:40:23;;;;;;;13.70;11.57;;;9.80;92.70;;;;;;5069891;28;20626;-53
2020/12/12 03:42:51;;;;;;;13.10;11.80;;;9.70;92.60;;;;;;5070220;28;20718;-53
2020/12/12 03:45:18;;;;;;;12.23;10.93;;;9.80;92.60;;;;;;5070083;28;20679;-52
2020/12/12 03:47:46;;;;;;;11.93;10.60;;;9.80;92.50;;;;;;5070055;28;20695;-53
2020/12/12 03:50:13;;;;;;;15.40;12.73;;;9.80;92.50;;;;;;5069605;28;21000;-53
2020/12/12 03:52:39;;;;;;;13.60;12.20;;;9.80;92.40;;;;;;5069827;28;20697;-52
2020/12/12 03:55:06;;;;;;;17.40;11.50;;;9.80;92.50;;;;;;5069953;28;20640;-53
2020/12/12 03:57:33;;;;;;;14.60;12.67;;;9.80;92.60;;;;;;5069918;28;20633;-53
2020/12/12 04:00:00;;;;;;;14.20;12.20;;;9.80;92.60;;;;;;5069688;28;20970;-52
2020/12/12 04:02:26;;;;;;;14.77;11.87;;;9.80;92.60;;;;;;5069304;28;20730;-53
2020/12/12 04:04:54;;;;;;;12.80;11.27;;;9.80;92.60;;;;;;5069551;28;21198;-53
2020/12/12 04:07:21;;;;;;;14.53;13.00;;;9.70;92.50;;;;;;5068905;28;20680;-52
2020/12/12 04:09:47;;;;;;;12.67;11.37;;;9.80;92.50;;;;;;5068958;28;21227;-52
2020/12/12 04:12:14;;;;;;;13.73;12.40;;;9.80;92.50;;;;;;5070253;28;20780;-53
2020/12/12 04:14:41;;;;;;;12.93;11.63;;;9.70;92.60;;;;;;5069318;28;21250;-52
2020/12/12 04:17:08;;;;;;;15.43;12.80;;;9.80;92.70;;;;;;5068876;28;21016;-53
2020/12/12 04:19:34;;;;;;;15.67;14.13;;;9.80;92.60;;;;;;5069431;28;20625;-53
2020/12/12 04:22:02;;;;;;;14.90;13.20;;;9.80;92.60;;;;;;5078690;28;20661;-53
2020/12/12 04:24:29;;;;;;;15.07;12.57;;;9.70;92.30;;;;;;5069189;28;20624;-52
2020/12/12 04:26:55;;;;;;;14.17;12.70;;;9.70;92.50;;;;;;5069691;28;20702;-53
2020/12/12 04:29:22;;;;;;;14.40;12.83;;;9.70;92.60;;;;;;5069659;28;20821;-52
2020/12/12 04:31:49;;;;;;;14.77;12.63;;;9.70;92.90;;;;;;5069226;28;20710;-52
2020/12/12 04:34:16;;;;;;;18.57;13.83;;;9.70;92.80;;;;;;5069376;28;20659;-52
2020/12/12 04:36:42;;;;;;;14.13;12.30;;;9.70;92.80;;;;;;5070542;28;20637;-52
2020/12/12 04:39:10;;;;;;;14.57;12.97;;;9.70;92.90;;;;;;5068805;28;21161;-52
2020/12/12 04:41:37;;;;;;;13.57;12.27;;;9.60;92.80;;;;;;5068885;28;20669;-53
2020/12/12 04:44:03;;;;;;;14.33;12.87;;;9.60;93.00;;;;;;5069423;28;21187;-52
2020/12/12 04:46:30;;;;;;;15.10;13.57;;;9.70;93.30;;;;;;5069474;28;21242;-53
2020/12/12 04:48:57;;;;;;;11.53;10.43;;;9.70;93.20;;;;;;5068691;28;20708;-55
2020/12/12 04:51:25;;;;;;;13.07;11.60;;;9.70;93.10;;;;;;5073031;28;20738;-52
2020/12/12 04:53:52;;;;;;;15.70;12.40;;;9.70;93.10;;;;;;5073361;28;21029;-51
2020/12/12 04:56:24;;;;;;;13.40;11.43;;;9.70;93.10;;;;;;5078673;28;20781;-52
2020/12/12 04:58:50;;;;;;;12.60;11.13;;;9.70;93.10;;;;;;5066949;28;20628;-51
2020/12/12 05:01:17;;;;;;;13.90;11.73;;;9.70;93.00;;;;;;5093364;28;21076;-51
2020/12/12 05:03:44;;;;;;;14.33;12.10;;;9.70;93.10;;;;;;5075059;28;20632;-51
2020/12/12 05:06:11;;;;;;;13.20;10.67;;;9.70;93.20;;;;;;5073589;28;20629;-51
2020/12/12 05:08:38;;;;;;;12.30;11.10;;;9.70;93.20;;;;;;5073358;28;20668;-53
2020/12/12 05:11:05;;;;;;;13.23;11.80;;;9.80;93.20;;;;;;5081145;28;20656;-51
2020/12/12 05:13:33;;;;;;;14.20;12.30;;;9.80;93.10;;;;;;5073298;28;20621;-52
2020/12/12 05:16:00;;;;;;;14.03;12.30;;;9.80;93.00;;;;;;5072678;28;21044;-52
2020/12/12 05:18:26;;;;;;;12.20;10.50;;;9.80;93.00;;;;;;5073082;28;20691;-51
2020/12/12 05:20:53;;;;;;;13.73;12.33;;;9.90;92.80;;;;;;5072523;28;20682;-52
2020/12/12 05:23:22;;;;;;;12.80;10.83;;;9.90;92.80;;;;;;5073382;28;20665;-51
2020/12/12 05:25:49;;;;;;;14.10;12.70;;;9.90;92.50;;;;;;5072273;28;20629;-52
2020/12/12 05:28:17;;;;;;;15.40;12.77;;;9.90;92.40;;;;;;5072253;28;21262;-52
2020/12/12 05:30:45;;;;;;;13.43;12.13;;;9.90;92.30;;;;;;5074166;28;21017;-52
2020/12/12 05:33:13;;;;;;;13.30;12.00;;;9.90;92.30;;;;;;5070883;28;20637;-53
2020/12/12 05:35:40;;;;;;;13.53;11.20;;;9.80;92.40;;;;;;5071272;28;20684;-52
2020/12/12 05:38:09;;;;;;;13.10;11.60;;;9.90;92.40;;;;;;5071844;28;20969;-56
2020/12/12 05:40:36;;;;;;;12.80;10.90;;;9.90;92.40;;;;;;5072728;28;20682;-56
2020/12/12 05:43:03;;;;;;;12.03;10.83;;;9.90;92.40;;;;;;5072237;28;20661;-56
2020/12/12 05:45:29;;;;;;;13.63;12.10;;;9.90;92.40;;;;;;5073440;28;20666;-56
2020/12/12 05:47:57;;;;;;;13.80;12.40;;;9.90;92.40;;;;;;5054159;28;20628;-54
2020/12/12 05:50:24;;;;;;;12.60;10.97;;;9.80;92.40;;;;;;5072109;28;20661;-56
2020/12/12 05:52:52;;;;;;;13.70;12.30;;;9.90;92.60;;;;;;5074000;28;20714;-55
2020/12/12 05:55:21;;;;;;;13.40;11.63;;;9.90;92.70;;;;;;5072146;28;20678;-55
2020/12/12 05:57:48;;;;;;;13.37;11.40;;;9.90;92.70;;;;;;5072341;28;21195;-51
2020/12/12 06:00:15;;;;;;;13.97;12.30;;;9.90;92.70;;;;;;5072370;28;20626;-52
2020/12/12 06:02:41;;;;;;;14.20;12.50;;;9.90;92.50;;;;;;5071485;28;20668;-51
2020/12/12 06:05:09;;;;;;;14.40;12.10;;;10.00;91.90;;;;;;5076520;28;21152;-51
2020/12/12 06:07:36;;;;;;;15.87;11.10;;;10.00;91.90;;;;;;5074195;28;20662;-51
2020/12/12 06:10:04;;;;;;;13.37;11.97;;;10.00;91.90;;;;;;5072424;28;20710;-51
2020/12/12 06:12:31;;;;;;;14.00;12.10;;;10.00;91.90;;;;;;5071902;28;20693;-51
2020/12/12 06:14:58;;;;;;;13.03;11.73;;;10.00;91.80;;;;;;5072050;28;20694;-50
2020/12/12 06:17:43;;;;;;;12.53;11.33;;;10.00;91.60;;;;;;5072192;28;20659;-51
2020/12/12 06:20:11;;;;;;;14.00;12.60;;;10.00;91.60;;;;;;5071638;28;20629;-51
2020/12/12 06:22:39;;;;;;;12.87;11.27;;;10.00;91.60;;;;;;5072366;28;20649;-51
2020/12/12 06:25:06;;;;;;;11.13;10.13;;;10.00;91.70;;;;;;5072075;28;20631;-50
2020/12/12 06:27:36;;;;;;;13.23;11.80;;;10.00;91.70;;;;;;5059001;28;20769;-51
2020/12/12 06:30:03;;;;;;;12.77;11.40;;;10.00;91.60;;;;;;5071964;28;20710;-52
2020/12/12 06:32:30;;;;;;;14.53;12.70;;;10.10;91.60;;;;;;5071638;28;21209;-52
2020/12/12 06:34:57;;;;;;;13.80;11.80;;;10.00;91.50;;;;;;5071923;28;20629;-50
2020/12/12 06:37:28;;;;;;;12.77;11.30;;;10.10;91.50;;;;;;5072564;28;21262;-52
2020/12/12 06:39:55;;;;;;;14.17;11.40;;;10.00;91.40;;;;;;5071787;28;20904;-52
2020/12/12 06:42:33;;;;;;;15.30;13.20;;;10.10;91.40;;;;;;5070814;28;20653;-52
2020/12/12 06:45:00;;;;;;;12.10;10.87;;;10.10;91.40;;;;;;5070137;28;20625;-53
2020/12/12 06:47:40;;;;;;;12.93;11.70;;;10.10;91.30;;;;;;5071245;28;20621;-53
2020/12/12 06:50:08;;;;;;;13.07;10.23;;;10.00;91.20;;;;;;5068923;28;20710;-52
2020/12/12 06:52:36;;;;;;;13.37;11.47;;;10.10;91.20;;;;;;5071237;28;20668;-52
2020/12/12 06:55:07;;;;;;;13.37;10.20;;;10.00;91.20;;;;;;5076405;28;20694;-53
2020/12/12 06:57:41;;;;;;;11.43;10.23;;;10.00;91.20;;;;;;5083643;28;20744;-53
2020/12/12 07:00:09;;;;;;;13.00;10.93;;;10.00;91.30;;;;;;5071397;28;20678;-52
2020/12/12 07:02:36;;;;;;;12.93;11.10;;;10.00;91.30;;;;;;5071160;28;20669;-53
2020/12/12 07:05:18;;;;;;;11.17;10.07;;;9.90;92.00;;;;;;5071505;28;20794;-53
2020/12/12 07:07:45;;;;;;;12.40;11.10;;;9.90;92.10;;;;;;5071370;28;20694;-52
2020/12/12 07:10:12;;;;;;;12.67;11.37;;;9.90;92.20;;;;;;5072472;28;20675;-53
2020/12/12 07:12:39;;;;;;;13.20;11.20;;;9.90;92.30;;;;;;5070702;28;20660;-52
2020/12/12 07:15:06;;;;;;;11.70;9.87;;;9.90;92.40;;;;;;5070655;28;20671;-52
2020/12/12 07:17:33;;;;;;;12.87;10.87;;;9.90;92.40;;;;;;5070999;28;21228;-52
2020/12/12 07:20:00;;;;;;;13.33;11.40;;;9.90;92.40;;;;;;5070627;28;20984;-52
2020/12/12 07:22:27;;;;;;;12.37;10.70;;;9.90;92.50;;;;;;5070814;28;20656;-53
2020/12/12 07:24:55;;;;;;;11.90;10.80;;;9.90;92.40;;;;;;5070752;28;20650;-52
2020/12/12 07:27:22;;;;;;;15.70;11.80;;;9.90;92.40;;;;;;5070472;28;20633;-52
2020/12/12 07:29:49;;;;;;;13.20;11.17;;;9.90;92.40;;;;;;5070667;28;20664;-53
2020/12/12 07:32:15;;;;;;;12.20;9.97;;;9.90;92.50;;;;;;5070294;28;20702;-52
2020/12/12 07:34:42;;;;;;;11.77;10.33;;;9.90;92.60;;;;;;5071037;28;20629;-53
2020/12/12 07:37:10;;;;;;;12.40;11.17;;;10.00;91.90;;;;;;5070390;28;20683;-53
2020/12/12 07:39:38;;;;;;;13.10;11.80;;;10.00;91.90;;;;;;5073588;28;20629;-52
2020/12/12 07:42:06;;;;;;;13.03;10.70;;;10.00;91.80;;;;;;5090170;28;20691;-53
2020/12/12 07:44:33;;;;;;;12.30;11.10;;;10.00;91.80;;;;;;5088272;28;20624;-53
2020/12/12 07:47:00;;;;;;;13.53;11.17;;;10.10;91.80;;;;;;5070045;28;21226;-53
2020/12/12 07:49:28;;;;;;;14.23;12.73;;;10.00;91.80;;;;;;5070406;28;20629;-55
2020/12/12 07:52:06;;;;;;;12.43;10.67;;;10.00;91.80;;;;;;5077077;28;20659;-52
2020/12/12 07:54:34;;;;;;;12.40;11.10;;;10.10;91.80;;;;;;5070190;28;20682;-53
2020/12/12 07:57:02;;;;;;;12.20;10.67;;;10.10;91.70;;;;;;5070400;28;20687;-53
2020/12/12 07:59:31;;;;;;;11.30;10.00;;;10.10;91.70;;;;;;5072279;28;20655;-52
2020/12/12 08:02:01;;;;;;;13.13;11.83;;;10.10;91.70;;;;;;5069862;28;20673;-52
2020/12/12 08:04:28;;;;;;;13.63;11.70;;;10.10;91.60;;;;;;5070248;28;21190;-53
2020/12/12 08:06:55;;;;;;;11.70;10.53;;;10.00;91.60;;;;;;5070218;28;20621;-52
2020/12/12 08:09:22;;;;;;;12.77;10.53;;;10.10;91.70;;;;;;5069571;28;20613;-52
2020/12/12 08:11:56;;;;;;;11.60;10.40;;;10.10;91.70;;;;;;5070423;28;20717;-53
2020/12/12 08:14:23;;;;;;;13.40;12.10;;;10.10;91.70;;;;;;5063730;28;21247;-52
2020/12/12 08:16:55;;;;;;;12.67;10.60;;;10.10;91.60;;;;;;5057902;28;20711;-53
2020/12/12 08:19:26;;;;;;;14.20;11.33;;;10.10;91.70;;;;;;5070139;28;20617;-52
2020/12/12 08:22:02;;;;;;;11.60;10.50;;;10.10;91.70;;;;;;5053595;28;20718;-53
2020/12/12 08:24:29;;;;;;;12.87;11.57;;;10.10;91.60;;;;;;5062463;28;20707;-53
2020/12/12 08:26:56;;;;;;;12.53;11.33;;;10.10;91.50;;;;;;5069902;28;20686;-52
2020/12/12 08:29:23;;;;;;;12.93;10.93;;;10.10;91.50;;;;;;5070311;28;20683;-53
2020/12/12 08:31:50;;;;;;;11.07;9.90;;;10.10;91.40;;;;;;5075392;28;20649;-53
2020/12/12 08:34:20;;;;;;;12.60;11.20;;;10.10;91.40;;;;;;5068623;28;20629;-54
2020/12/12 08:36:47;;;;;;;11.90;10.63;;;10.10;91.50;;;;;;5069392;28;20687;-53
2020/12/12 08:39:14;;;;;;;11.20;10.00;;;10.20;91.50;;;;;;5069785;28;20618;-54
2020/12/12 08:41:41;;;;;;;11.80;10.60;;;10.30;91.40;;;;;;5069340;28;20981;-53
2020/12/12 08:44:07;;;;;;;11.40;10.20;;;10.30;91.40;;;;;;5069365;28;20637;-53
2020/12/12 08:46:34;;;;;;;11.33;10.20;;;10.30;91.30;;;;;;5070308;28;20672;-53
2020/12/12 08:49:02;;;;;;;13.20;11.57;;;10.30;91.20;;;;;;5067855;28;20702;-53
2020/12/12 08:51:30;;;;;;;15.47;11.13;;;10.30;91.20;;;;;;5069612;28;20680;-53
2020/12/12 08:53:57;;;;;;;12.60;10.77;;;10.40;91.30;;;;;;5069088;28;20639;-52
2020/12/12 08:56:25;;;;;;;12.67;11.37;;;10.40;91.50;;;;;;5069462;28;20621;-48
2020/12/12 08:58:54;;;;;;;12.33;11.13;;;10.40;91.30;;;;;;5068600;28;20686;-47
2020/12/12 09:01:32;;;;;;;14.40;12.90;;;10.40;91.40;;;;;;5069428;28;20661;-47
2020/12/12 09:04:14;;;;;;;12.63;10.87;;;10.40;91.80;;;;;;5068583;28;20661;-49
2020/12/12 09:06:51;;;;;;;13.70;12.50;;;10.30;91.90;;;;;;5075559;28;20701;-48
2020/12/12 09:09:19;;;;;;;17.23;13.07;;;10.30;92.20;;;;;;5069781;28;20690;-47
2020/12/12 09:11:47;;;;;;;15.47;12.53;;;10.30;92.30;;;;;;5052017;28;20665;-47
2020/12/12 09:14:28;;;;;;;14.00;12.43;;;10.30;92.60;;;;;;5070042;28;21054;-47
2020/12/12 09:17:06;;;;;;;13.37;12.00;;;10.30;92.80;;;;;;5070475;28;20645;-52
2020/12/12 09:19:34;;;;;;;14.90;12.60;;;10.40;92.60;;;;;;5075371;28;20625;-51
2020/12/12 09:22:01;;;;;;;14.23;12.73;;;10.40;92.60;;;;;;5075573;28;20728;-49
2020/12/12 09:24:28;;;;;;;13.07;11.80;;;10.50;92.50;;;;;;5088510;28;20636;-50
2020/12/12 09:26:56;;;;;;;15.00;12.83;;;10.40;92.50;;;;;;5078819;28;20674;-52
2020/12/12 09:29:23;;;;;;;16.17;13.80;;;10.50;92.60;;;;;;5072905;28;20727;-51
2020/12/12 09:31:50;;;;;;;15.57;13.97;;;10.50;92.60;;;;;;5080977;28;20657;-50
2020/12/12 09:34:18;;;;;;;13.53;12.23;;;10.50;92.30;;;;;;5070353;28;21383;-51
2020/12/12 09:36:46;;;;;;;16.37;14.37;;;10.50;92.00;;;;;;5070036;28;20624;-50
2020/12/12 09:39:12;;;;;;;16.07;13.30;;;10.50;92.10;;;;;;5073221;28;20790;-49
2020/12/12 09:41:39;;;;;;;15.80;14.20;;;10.50;92.00;;;;;;5074302;28;20702;-49
2020/12/12 09:44:06;;;;;;;15.27;12.90;;;10.50;91.90;;;;;;5072959;28;20698;-49
2020/12/12 09:46:33;;;;;;;16.90;14.90;;;10.50;92.00;;;;;;5073133;28;20629;-48
2020/12/12 09:48:59;;;;;;;15.17;13.63;;;10.50;91.90;;;;;;5074072;28;20967;-49
2020/12/12 09:51:26;;;;;;;14.73;13.33;;;10.50;91.90;;;;;;5073525;28;20673;-49
2020/12/12 09:53:54;;;;;;;18.00;15.37;;;10.50;92.20;;;;;;5073313;28;20668;-49
2020/12/12 09:56:21;;;;;;;16.67;14.77;;;10.50;92.30;;;;;;5072557;28;21031;-50
2020/12/12 09:58:47;;;;;;;16.10;14.23;;;10.60;92.70;;;;;;5072753;28;20720;-50
2020/12/12 10:01:14;;;;;;;17.60;14.83;;;10.60;92.30;;;;;;5072268;28;20677;-51
2020/12/12 10:03:41;;;;;;;15.93;13.73;;;10.70;92.30;;;;;;5073563;28;20629;-50
2020/12/12 10:06:08;;;;;;;14.87;12.60;;;10.70;91.90;;;;;;5073021;28;20633;-50
2020/12/12 10:08:35;;;;;;;17.77;15.10;;;10.70;91.90;;;;;;5071779;28;20694;-51
2020/12/12 10:11:03;;;;;;;16.13;13.63;;;10.70;92.20;;;;;;5072152;28;21173;-50
2020/12/12 10:13:29;;;;;;;14.33;12.83;;;10.70;92.20;;;;;;5072177;28;20617;-51
2020/12/12 10:15:56;;;;;;;15.00;13.40;;;10.70;92.40;;;;;;5086223;28;20632;-52
2020/12/12 10:18:23;;;;;;;15.33;13.73;;;10.70;92.60;;;;;;5091158;28;20635;-49
2020/12/12 10:20:50;;;;;;;13.53;12.10;;;10.70;92.70;;;;;;5071953;28;20629;-52
2020/12/12 10:23:17;;;;;;;14.63;13.13;;;10.80;92.80;;;;;;5070065;28;20677;-52
2020/12/12 10:25:44;;;;;;;13.13;11.73;;;10.80;92.70;;;;;;5073929;28;20674;-52
2020/12/12 10:28:11;;;;;;;16.50;13.40;;;10.80;92.70;;;;;;5092600;28;20670;-52
2020/12/12 10:30:38;;;;;;;14.87;13.30;;;10.80;92.50;;;;;;5091212;28;20791;-50
2020/12/12 10:33:05;;;;;;;17.70;13.93;;;10.90;92.60;;;;;;5091655;28;20725;-50
2020/12/12 10:35:32;;;;;;;14.47;11.90;;;10.90;92.40;;;;;;5072157;28;20632;-50
2020/12/12 10:37:59;;;;;;;16.50;14.20;;;11.00;92.30;;;;;;5070427;28;21066;-50
2020/12/12 10:40:29;;;;;;;16.57;14.17;;;11.00;92.10;;;;;;5068016;28;20663;-50
2020/12/12 10:42:56;;;;;;;18.03;15.20;;;11.00;92.10;;;;;;5071101;28;20710;-50
2020/12/12 10:45:24;;;;;;;15.23;13.67;;;11.00;91.90;;;;;;5071185;28;20629;-50
2020/12/12 10:47:51;;;;;;;15.50;13.90;;;11.00;91.80;;;;;;5070924;28;21161;-50
2020/12/12 10:50:18;;;;;;;19.23;15.63;;;11.00;91.80;;;;;;5070623;28;20649;-54
2020/12/12 10:52:45;;;;;;;19.43;16.57;;;11.00;91.90;;;;;;5071836;28;21088;-53
2020/12/12 10:55:12;;;;;;;17.47;15.67;;;11.00;91.90;;;;;;5067868;28;20642;-53
2020/12/12 10:57:38;;;;;;;18.20;16.40;;;11.00;91.70;;;;;;5068721;28;20946;-55
2020/12/12 11:00:05;;;;;;;16.30;14.57;;;11.00;91.60;;;;;;5068911;28;20661;-52
2020/12/12 11:02:34;;;;;;;20.80;17.63;;;11.00;91.60;;;;;;5067342;28;20650;-53
2020/12/12 11:05:01;;;;;;;18.33;16.37;;;11.00;91.60;;;;;;5069523;28;20620;-52
2020/12/12 11:07:29;;;;;;;20.70;17.00;;;11.00;91.50;;;;;;5069119;28;20698;-54
2020/12/12 11:09:55;;;;;;;17.77;15.87;;;11.00;91.60;;;;;;5069929;28;20629;-51
2020/12/12 11:12:22;;;;;;;22.03;18.00;;;11.00;91.50;;;;;;5068867;28;20665;-54
2020/12/12 11:14:54;;;;;;;24.20;17.67;;;11.00;91.40;;;;;;5069333;28;20810;-51
2020/12/12 11:17:21;;;;;;;17.83;15.80;;;11.00;91.20;;;;;;5068230;28;21002;-52
2020/12/12 11:19:49;;;;;;;19.00;16.30;;;11.10;91.10;;;;;;5069277;28;20621;-51
2020/12/12 11:22:15;;;;;;;19.40;16.37;;;11.10;90.80;;;;;;5065179;28;20721;-52
2020/12/12 11:24:42;;;;;;;18.20;16.33;;;11.10;91.00;;;;;;5068315;28;20968;-52
2020/12/12 11:27:09;;;;;;;22.27;18.53;;;11.10;91.00;;;;;;5075329;28;20682;-53
2020/12/12 11:29:36;;;;;;;19.57;15.90;;;11.10;90.80;;;;;;5070872;28;20629;-50
2020/12/12 11:32:03;;;;;;;18.70;16.80;;;11.10;90.60;;;;;;5070434;28;20734;-51
2020/12/12 11:34:33;;;;;;;18.63;15.20;;;11.10;90.50;;;;;;5070607;28;20624;-49
2020/12/12 11:39:56;;;;;;;18.80;16.57;;;11.00;90.70;;;;;;5049958;28;20621;-51
2020/12/12 11:45:37;;;;;;;19.40;16.90;;;11.00;90.90;;;;;;5071213;28;20667;-52
2020/12/12 11:48:04;;;;;;;19.00;16.90;;;11.00;90.90;;;;;;5069385;28;20686;-50
2020/12/12 11:50:31;;;;;;;19.97;17.33;;;11.00;90.90;;;;;;5070148;28;20657;-51
2020/12/12 11:52:59;;;;;;;18.77;16.63;;;11.00;90.80;;;;;;5069929;28;20702;-50
2020/12/12 11:55:26;;;;;;;19.20;16.73;;;11.00;90.90;;;;;;5069375;28;20625;-50
2020/12/12 11:57:52;;;;;;;21.73;16.37;;;11.00;90.90;;;;;;5069706;28;20690;-50
2020/12/12 12:00:21;;;;;;;16.60;14.80;;;11.00;90.90;;;;;;5062476;28;21186;-53
2020/12/12 12:02:48;;;;;;;17.60;15.73;;;11.00;91.00;;;;;;5050271;28;20661;-53
2020/12/12 12:05:15;;;;;;;19.67;17.57;;;11.00;90.90;;;;;;5069691;28;21184;-51
2020/12/12 12:07:44;;;;;;;19.90;16.63;;;11.00;90.90;;;;;;5058340;28;20617;-51
2020/12/12 12:10:16;;;;;;;21.40;16.13;;;11.10;90.90;;;;;;5069515;28;20646;-52
2020/12/12 12:12:43;;;;;;;18.63;15.70;;;11.00;90.90;;;;;;5067882;28;20719;-51
2020/12/12 12:15:10;;;;;;;20.37;17.87;;;11.10;91.00;;;;;;5068714;28;20653;-52
2020/12/12 12:17:37;;;;;;;18.07;15.10;;;11.10;91.40;;;;;;5068737;28;20686;-52
2020/12/12 12:20:04;;;;;;;18.80;16.80;;;11.10;91.10;;;;;;5054696;28;20633;-52
2020/12/12 12:22:31;;;;;;;21.33;17.83;;;11.20;91.20;;;;;;5067567;28;20657;-52
2020/12/12 12:24:58;;;;;;;18.60;16.70;;;11.10;91.20;;;;;;5069303;28;20757;-49
2020/12/12 12:27:26;;;;;;;17.67;15.77;;;11.10;91.30;;;;;;5070804;28;20625;-52
2020/12/12 12:29:52;;;;;;;18.23;15.60;;;11.10;91.50;;;;;;5070575;28;20698;-51
2020/12/12 12:32:20;;;;;;;20.17;16.60;;;11.20;91.80;;;;;;5069061;28;21294;-50
2020/12/12 12:34:46;;;;;;;20.17;18.07;;;11.20;92.30;;;;;;5069160;28;20621;-51
2020/12/12 12:37:13;;;;;;;21.27;18.83;;;11.20;92.70;;;;;;5070906;28;20702;-50
2020/12/12 12:39:40;;;;;;;28.33;19.60;;;11.20;92.60;;;;;;5069436;28;20621;-51
2020/12/12 12:42:07;;;;;;;21.57;16.80;;;11.10;92.50;;;;;;5069690;28;20707;-50